Time;durP1;ratioP1;P1;durP2;ratioP2;P2;SDS_P1;SDS_P2;PMS_P1;PMS_P2;Temp;Humidity;BMP_temperature;BMP_pressure;BME280_temperature;BME280_humidity;BME280_pressure;Samples;Min_cycle;Max_cycle;Signal;HPM_P1;HPM_P2
2022/11/21 00:00:51;;;;;;;39.00;15.93;;;;;;;;;;4933358;29;20062;-70
2022/11/21 00:03:17;;;;;;;29.48;13.75;;;;;;;;;;4950144;28;20075;-73
2022/11/21 00:05:44;;;;;;;41.92;20.85;;;;;;;;;;4951648;29;20066;-71
2022/11/21 00:08:10;;;;;;;33.70;16.02;;;;;;;;;;4951346;29;20043;-71
2022/11/21 00:10:36;;;;;;;33.10;13.43;;;;;;;;;;4918293;29;20125;-72
2022/11/21 00:13:02;;;;;;;25.58;13.85;;;;;;;;;;4934311;29;20537;-72
2022/11/21 00:15:28;;;;;;;26.42;14.02;;;;;;;;;;4951319;29;20126;-70
2022/11/21 00:17:54;;;;;;;33.33;15.65;;;;;;;;;;4949412;28;20134;-71
2022/11/21 00:20:20;;;;;;;34.63;14.30;;;;;;;;;;4950891;29;20539;-71
2022/11/21 00:22:46;;;;;;;31.52;16.95;;;;;;;;;;4952112;29;20435;-71
2022/11/21 00:25:12;;;;;;;30.92;15.30;;;;;;;;;;4953932;29;20110;-71
2022/11/21 00:27:39;;;;;;;32.05;14.48;;;;;;;;;;4954688;29;20070;-72
2022/11/21 00:30:05;;;;;;;47.47;17.58;;;;;;;;;;4953831;29;20039;-70
2022/11/21 00:32:31;;;;;;;42.95;18.27;;;;;;;;;;4954688;29;20043;-72
2022/11/21 00:34:57;;;;;;;41.78;19.38;;;;;;;;;;4950927;29;20067;-72
2022/11/21 00:37:23;;;;;;;36.13;18.70;;;;;;;;;;4950707;29;20079;-72
2022/11/21 00:39:49;;;;;;;29.60;16.77;;;;;;;;;;4950628;29;20035;-73
2022/11/21 00:42:15;;;;;;;24.35;14.18;;;;;;;;;;4917695;29;20046;-71
2022/11/21 00:44:40;;;;;;;36.63;14.57;;;;;;;;;;4933188;29;20535;-70
2022/11/21 00:47:06;;;;;;;40.38;17.08;;;;;;;;;;4950155;29;20129;-71
2022/11/21 00:49:32;;;;;;;35.90;15.82;;;;;;;;;;4917880;29;20193;-73
2022/11/21 00:51:58;;;;;;;36.03;14.95;;;;;;;;;;4950612;29;20032;-73
2022/11/21 00:54:24;;;;;;;30.70;16.02;;;;;;;;;;4950914;29;20416;-72
2022/11/21 00:56:49;;;;;;;40.72;16.88;;;;;;;;;;4950591;29;20091;-72
2022/11/21 00:59:16;;;;;;;37.03;17.20;;;;;;;;;;4933604;29;20525;-72
2022/11/21 01:01:41;;;;;;;31.63;14.68;;;;;;;;;;4933012;29;20062;-71
2022/11/21 01:04:07;;;;;;;44.67;20.13;;;;;;;;;;4949788;29;20500;-72
2022/11/21 01:06:34;;;;;;;35.10;17.20;;;;;;;;;;4949729;29;20121;-72
2022/11/21 01:09:00;;;;;;;31.73;15.75;;;;;;;;;;4932651;29;20188;-72
2022/11/21 01:11:26;;;;;;;30.90;15.90;;;;;;;;;;4932697;29;20034;-72
2022/11/21 01:13:52;;;;;;;41.03;18.80;;;;;;;;;;4949582;29;20050;-71
2022/11/21 01:16:18;;;;;;;37.05;16.55;;;;;;;;;;4932747;29;20043;-72
2022/11/21 01:18:44;;;;;;;37.65;17.20;;;;;;;;;;4915671;29;20043;-71
2022/11/21 01:21:14;;;;;;;33.08;16.95;;;;;;;;;;4915303;29;20051;-73
2022/11/21 01:23:40;;;;;;;44.83;20.98;;;;;;;;;;4920581;29;20471;-72
2022/11/21 01:26:07;;;;;;;51.50;25.40;;;;;;;;;;4913632;29;20570;-71
2022/11/21 01:28:33;;;;;;;35.63;17.80;;;;;;;;;;4898100;29;20126;-74
2022/11/21 01:31:05;;;;;;;46.97;20.85;;;;;;;;;;4912510;29;20130;-72
2022/11/21 01:33:31;;;;;;;44.03;20.75;;;;;;;;;;4930547;29;20094;-72
2022/11/21 01:35:57;;;;;;;51.67;24.45;;;;;;;;;;4913026;29;20032;-72
2022/11/21 01:38:23;;;;;;;33.92;14.88;;;;;;;;;;4930495;29;20050;-71
2022/11/21 01:40:48;;;;;;;52.00;24.75;;;;;;;;;;4912915;29;20035;-72
2022/11/21 01:43:14;;;;;;;65.32;27.83;;;;;;;;;;4929178;29;20103;-71
2022/11/21 01:46:00;;;;;;;37.88;18.33;;;;;;;;;;4897493;29;20062;-72
2022/11/21 01:48:26;;;;;;;42.83;19.10;;;;;;;;;;4914032;29;20095;-72
2022/11/21 01:50:52;;;;;;;40.42;17.40;;;;;;;;;;4896988;29;20035;-72
2022/11/21 01:53:18;;;;;;;45.55;17.75;;;;;;;;;;4919555;29;20039;-71
2022/11/21 01:55:44;;;;;;;63.50;27.35;;;;;;;;;;4931772;29;20090;-71
2022/11/21 01:58:10;;;;;;;44.38;20.73;;;;;;;;;;4948802;29;20523;-71
2022/11/21 02:00:37;;;;;;;41.45;21.38;;;;;;;;;;4931671;28;20039;-70
2022/11/21 02:03:04;;;;;;;39.88;17.60;;;;;;;;;;4931861;29;20031;-71
2022/11/21 02:05:30;;;;;;;50.42;23.65;;;;;;;;;;4947814;29;20128;-71
2022/11/21 02:07:56;;;;;;;31.30;13.82;;;;;;;;;;4931484;29;20163;-70
2022/11/21 02:10:22;;;;;;;57.53;24.00;;;;;;;;;;4932084;29;20700;-72
2022/11/21 02:12:50;;;;;;;26.40;13.05;;;;;;;;;;4931436;29;20070;-72
2022/11/21 02:15:16;;;;;;;46.20;21.08;;;;;;;;;;4915862;29;20059;-71
2022/11/21 02:17:42;;;;;;;42.22;17.63;;;;;;;;;;4948991;29;20050;-70
2022/11/21 02:20:11;;;;;;;37.53;17.02;;;;;;;;;;4931448;29;20035;-73
2022/11/21 02:22:37;;;;;;;44.60;16.65;;;;;;;;;;4948382;29;20134;-73
2022/11/21 02:25:06;;;;;;;34.80;16.77;;;;;;;;;;4948616;29;20130;-72
2022/11/21 02:27:32;;;;;;;50.22;23.15;;;;;;;;;;4948775;29;20661;-71
2022/11/21 02:29:58;;;;;;;40.53;19.58;;;;;;;;;;4931683;29;20071;-71
2022/11/21 02:32:25;;;;;;;24.20;13.23;;;;;;;;;;4915862;29;20074;-72
2022/11/21 02:34:51;;;;;;;31.63;15.52;;;;;;;;;;4931086;29;20717;-71
2022/11/21 02:37:17;;;;;;;29.67;13.82;;;;;;;;;;4948535;29;20079;-71
2022/11/21 02:39:43;;;;;;;29.27;14.57;;;;;;;;;;4913691;29;20163;-71
2022/11/21 02:42:11;;;;;;;20.50;10.10;;;;;;;;;;4898327;29;20517;-72
2022/11/21 02:44:39;;;;;;;35.53;17.77;;;;;;;;;;4916161;29;20042;-71
2022/11/21 02:47:05;;;;;;;26.23;14.60;;;;;;;;;;4931698;29;20036;-71
2022/11/21 02:49:34;;;;;;;31.13;16.90;;;;;;;;;;4933101;29;20046;-71
2022/11/21 02:51:59;;;;;;;25.10;14.10;;;;;;;;;;4900160;29;20171;-71
2022/11/21 02:54:25;;;;;;;27.42;13.40;;;;;;;;;;4916293;29;20123;-70
2022/11/21 02:56:51;;;;;;;27.38;13.73;;;;;;;;;;4916251;29;20039;-71
2022/11/21 02:59:17;;;;;;;40.20;17.80;;;;;;;;;;4916754;29;20063;-72
2022/11/21 03:01:43;;;;;;;26.95;11.40;;;;;;;;;;4926346;29;20071;-72
2022/11/21 03:04:09;;;;;;;39.58;20.08;;;;;;;;;;4934609;29;20130;-71
2022/11/21 03:06:34;;;;;;;28.45;12.77;;;;;;;;;;4918949;29;20419;-70
2022/11/21 03:09:00;;;;;;;31.63;14.02;;;;;;;;;;4951687;29;20035;-71
2022/11/21 03:11:26;;;;;;;26.63;13.15;;;;;;;;;;4950049;28;20036;-72
2022/11/21 03:13:52;;;;;;;12.95;9.50;;;;;;;;;;4951413;29;20035;-72
2022/11/21 03:16:18;;;;;;;44.92;19.02;;;;;;;;;;4941945;28;20118;-69
2022/11/21 03:18:44;;;;;;;41.00;19.20;;;;;;;;;;4931399;29;20098;-73
2022/11/21 03:21:10;;;;;;;29.85;14.32;;;;;;;;;;4939208;28;20760;-71
2022/11/21 03:23:36;;;;;;;33.83;14.52;;;;;;;;;;4951670;29;20031;-73
2022/11/21 03:26:01;;;;;;;39.58;17.42;;;;;;;;;;4934250;29;20057;-71
2022/11/21 03:28:27;;;;;;;21.40;13.05;;;;;;;;;;4918534;29;20090;-72
2022/11/21 03:30:53;;;;;;;32.85;12.93;;;;;;;;;;4933345;29;20750;-72
2022/11/21 03:33:19;;;;;;;38.17;16.70;;;;;;;;;;4942411;29;20396;-73
2022/11/21 03:35:46;;;;;;;26.92;12.52;;;;;;;;;;4915077;29;20039;-72
2022/11/21 03:38:12;;;;;;;33.33;16.17;;;;;;;;;;4931984;29;20677;-71
2022/11/21 03:40:38;;;;;;;44.05;16.50;;;;;;;;;;4937780;28;20093;-72
2022/11/21 03:43:04;;;;;;;27.75;14.85;;;;;;;;;;4934053;29;20043;-70
2022/11/21 03:45:30;;;;;;;31.95;15.82;;;;;;;;;;4918395;29;20039;-70
2022/11/21 03:47:56;;;;;;;40.25;18.80;;;;;;;;;;4951422;29;20045;-72
2022/11/21 03:50:22;;;;;;;38.05;15.25;;;;;;;;;;4933580;29;20535;-72
2022/11/21 03:52:48;;;;;;;36.28;16.23;;;;;;;;;;4948778;28;20031;-72
2022/11/21 03:55:14;;;;;;;35.70;17.52;;;;;;;;;;4952004;28;20436;-73
2022/11/21 03:57:40;;;;;;;34.38;16.75;;;;;;;;;;4933913;29;20118;-73
2022/11/21 04:00:06;;;;;;;49.05;25.65;;;;;;;;;;4951067;29;20121;-74
2022/11/21 04:02:31;;;;;;;30.02;16.20;;;;;;;;;;4950787;28;20042;-74
2022/11/21 04:04:57;;;;;;;34.15;16.58;;;;;;;;;;4950700;29;20035;-73
2022/11/21 04:07:23;;;;;;;34.40;17.98;;;;;;;;;;4950977;29;20532;-73
2022/11/21 04:09:49;;;;;;;43.58;20.48;;;;;;;;;;4918210;29;20043;-74
2022/11/21 04:12:15;;;;;;;18.40;10.38;;;;;;;;;;4933080;29;20042;-73
2022/11/21 04:14:41;;;;;;;42.00;18.23;;;;;;;;;;4941393;29;20042;-73
2022/11/21 04:17:07;;;;;;;32.53;15.20;;;;;;;;;;4949633;29;20039;-72
2022/11/21 04:19:32;;;;;;;38.05;17.77;;;;;;;;;;4948505;29;20043;-73
2022/11/21 04:21:58;;;;;;;33.70;15.43;;;;;;;;;;4950055;28;20428;-73
2022/11/21 04:24:24;;;;;;;42.95;20.45;;;;;;;;;;4949949;29;20043;-72
2022/11/21 04:26:50;;;;;;;29.00;14.95;;;;;;;;;;4933147;28;20094;-72
2022/11/21 04:29:16;;;;;;;28.95;14.38;;;;;;;;;;4932983;28;20039;-73
2022/11/21 04:31:42;;;;;;;28.08;14.60;;;;;;;;;;4933526;28;20555;-76
2022/11/21 04:34:08;;;;;;;34.72;16.55;;;;;;;;;;4948721;28;20649;-73
2022/11/21 04:36:34;;;;;;;32.45;16.05;;;;;;;;;;4932996;28;20047;-72
2022/11/21 04:39:00;;;;;;;38.90;18.75;;;;;;;;;;4917184;29;20559;-73
2022/11/21 04:41:26;;;;;;;40.10;17.90;;;;;;;;;;4950397;28;20535;-72
2022/11/21 04:43:52;;;;;;;29.08;15.70;;;;;;;;;;4933295;29;20074;-73
2022/11/21 04:46:18;;;;;;;33.50;15.55;;;;;;;;;;4950971;28;20073;-73
2022/11/21 04:48:43;;;;;;;24.58;13.75;;;;;;;;;;4951291;28;20035;-73
2022/11/21 04:51:09;;;;;;;46.88;23.55;;;;;;;;;;4951161;28;20031;-72
2022/11/21 04:53:36;;;;;;;36.05;15.68;;;;;;;;;;4918165;28;20142;-72
2022/11/21 04:56:05;;;;;;;29.08;14.32;;;;;;;;;;4950297;28;20046;-72
2022/11/21 04:58:31;;;;;;;29.38;13.60;;;;;;;;;;4950581;28;20051;-73
2022/11/21 05:00:57;;;;;;;41.17;17.52;;;;;;;;;;4950528;28;20035;-72
2022/11/21 05:03:22;;;;;;;38.95;17.73;;;;;;;;;;4949579;28;20094;-72
2022/11/21 05:05:48;;;;;;;35.33;19.60;;;;;;;;;;4950371;28;20042;-72
2022/11/21 05:08:14;;;;;;;41.67;18.65;;;;;;;;;;4950293;28;20086;-73
2022/11/21 05:13:25;;;;;;;34.70;15.73;;;;;;;;;;4936524;28;20039;-72
2022/11/21 05:15:57;;;;;;;31.67;14.75;;;;;;;;;;4933748;28;20031;-73
2022/11/21 05:18:23;;;;;;;40.17;19.70;;;;;;;;;;4912796;29;20110;-72
2022/11/21 05:20:49;;;;;;;48.70;21.05;;;;;;;;;;4920211;29;20043;-73
2022/11/21 05:23:15;;;;;;;29.60;15.75;;;;;;;;;;4914049;29;20197;-72
2022/11/21 05:25:41;;;;;;;45.28;22.60;;;;;;;;;;4914163;29;20504;-74
2022/11/21 05:28:07;;;;;;;26.20;14.93;;;;;;;;;;4930857;29;20039;-72
2022/11/21 05:30:33;;;;;;;30.33;16.90;;;;;;;;;;4929928;29;20038;-72
2022/11/21 05:32:59;;;;;;;28.45;13.32;;;;;;;;;;4930958;29;20039;-72
2022/11/21 05:35:25;;;;;;;34.40;16.25;;;;;;;;;;4913989;29;20469;-73
2022/11/21 05:37:54;;;;;;;35.15;16.88;;;;;;;;;;4913979;29;20075;-73
2022/11/21 05:40:20;;;;;;;22.80;13.18;;;;;;;;;;4913921;29;20039;-72
2022/11/21 05:45:31;;;;;;;21.63;12.80;;;;;;;;;;4931541;29;20066;-73
2022/11/21 05:47:57;;;;;;;35.65;15.60;;;;;;;;;;4898369;29;20519;-73
2022/11/21 05:50:22;;;;;;;36.58;21.13;;;;;;;;;;4929764;29;20123;-72
2022/11/21 05:52:48;;;;;;;35.15;17.77;;;;;;;;;;4914297;29;20035;-73
2022/11/21 05:55:14;;;;;;;26.38;13.98;;;;;;;;;;4931759;29;20086;-72
2022/11/21 05:57:40;;;;;;;29.42;15.15;;;;;;;;;;4931708;29;20044;-73
2022/11/21 06:00:06;;;;;;;27.27;14.30;;;;;;;;;;4913870;29;20644;-73
2022/11/21 06:05:17;;;;;;;38.53;20.17;;;;;;;;;;4933906;29;20035;-73
2022/11/21 06:07:43;;;;;;;43.03;20.52;;;;;;;;;;4932666;29;20071;-74
2022/11/21 06:10:09;;;;;;;22.80;13.27;;;;;;;;;;4931000;29;20491;-72
2022/11/21 06:12:35;;;;;;;24.95;13.73;;;;;;;;;;4933137;29;20039;-73
2022/11/21 06:15:00;;;;;;;28.77;15.07;;;;;;;;;;4916533;29;20653;-73
2022/11/21 06:17:27;;;;;;;26.58;13.88;;;;;;;;;;4936188;29;20055;-74
2022/11/21 06:19:53;;;;;;;46.47;22.73;;;;;;;;;;4934772;29;20509;-73
2022/11/21 06:22:18;;;;;;;36.38;16.92;;;;;;;;;;4902813;29;20047;-73
2022/11/21 06:24:44;;;;;;;36.00;17.65;;;;;;;;;;4935346;29;20039;-74
2022/11/21 06:27:10;;;;;;;38.35;17.92;;;;;;;;;;4935822;29;20448;-73
2022/11/21 06:29:36;;;;;;;35.85;17.17;;;;;;;;;;4948954;28;20031;-71
2022/11/21 06:32:02;;;;;;;37.90;16.42;;;;;;;;;;4960384;28;20128;-71
2022/11/21 06:34:28;;;;;;;40.25;17.92;;;;;;;;;;4952489;29;20039;-71
2022/11/21 06:36:54;;;;;;;48.03;20.40;;;;;;;;;;4953074;29;20139;-71
2022/11/21 06:39:20;;;;;;;47.08;21.88;;;;;;;;;;4950919;29;20027;-71
2022/11/21 06:41:49;;;;;;;42.97;17.88;;;;;;;;;;4925821;29;20449;-71
2022/11/21 06:44:16;;;;;;;12.80;7.47;;;;;;;;;;4938455;29;20508;-70
2022/11/21 06:46:42;;;;;;;37.97;16.60;;;;;;;;;;4947240;28;20032;-72
2022/11/21 06:49:08;;;;;;;44.90;19.13;;;;;;;;;;4950884;29;20031;-71
2022/11/21 06:51:34;;;;;;;27.02;13.73;;;;;;;;;;4933789;29;20035;-71
2022/11/21 06:54:00;;;;;;;39.55;17.40;;;;;;;;;;4933208;29;20039;-71
2022/11/21 06:56:26;;;;;;;29.80;14.88;;;;;;;;;;4929641;29;20036;-72
2022/11/21 06:58:52;;;;;;;31.10;16.20;;;;;;;;;;4938213;29;20596;-72
2022/11/21 07:01:18;;;;;;;31.05;13.90;;;;;;;;;;4949563;29;20467;-72
2022/11/21 07:03:44;;;;;;;33.63;17.75;;;;;;;;;;4939947;29;20047;-70
2022/11/21 07:06:10;;;;;;;39.10;17.00;;;;;;;;;;4947908;29;20028;-70
2022/11/21 07:08:36;;;;;;;41.20;18.50;;;;;;;;;;4949495;29;20031;-71
2022/11/21 07:11:03;;;;;;;29.75;13.85;;;;;;;;;;4952230;29;20360;-71
2022/11/21 07:13:29;;;;;;;35.55;15.90;;;;;;;;;;4934146;29;20035;-70
2022/11/21 07:15:59;;;;;;;40.80;20.55;;;;;;;;;;4954419;29;20093;-71
2022/11/21 07:18:25;;;;;;;37.72;18.42;;;;;;;;;;4944036;29;20421;-70
2022/11/21 07:20:51;;;;;;;33.55;16.05;;;;;;;;;;4902800;29;20031;-71
2022/11/21 07:26:34;;;;;;;41.35;18.35;;;;;;;;;;4947800;28;20043;-71
2022/11/21 07:29:00;;;;;;;63.50;24.85;;;;;;;;;;4945936;29;20045;-71
2022/11/21 07:31:26;;;;;;;51.38;22.90;;;;;;;;;;4940090;28;20067;-70
2022/11/21 07:33:52;;;;;;;47.33;22.77;;;;;;;;;;4932157;29;20032;-72
2022/11/21 07:36:18;;;;;;;43.08;23.30;;;;;;;;;;4919850;29;20039;-71
2022/11/21 07:38:45;;;;;;;33.03;18.10;;;;;;;;;;4950108;29;20059;-72
2022/11/21 07:41:10;;;;;;;46.38;21.70;;;;;;;;;;4934140;29;20074;-71
2022/11/21 07:43:36;;;;;;;41.67;19.50;;;;;;;;;;4952693;29;20063;-71
2022/11/21 07:46:04;;;;;;;40.45;19.67;;;;;;;;;;4944359;29;20071;-71
2022/11/21 07:48:31;;;;;;;43.90;23.40;;;;;;;;;;4922163;29;20137;-72
2022/11/21 07:50:57;;;;;;;45.75;22.23;;;;;;;;;;4929986;29;20039;-72
2022/11/21 07:53:24;;;;;;;44.35;22.52;;;;;;;;;;4930945;29;20054;-71
2022/11/21 07:55:50;;;;;;;32.92;17.25;;;;;;;;;;4930808;29;20044;-70
2022/11/21 07:58:16;;;;;;;28.15;15.45;;;;;;;;;;4944484;29;20503;-70
2022/11/21 08:00:42;;;;;;;45.67;22.67;;;;;;;;;;4929813;28;20023;-70
2022/11/21 08:03:08;;;;;;;38.35;17.23;;;;;;;;;;4946832;28;20600;-71
2022/11/21 08:05:37;;;;;;;28.35;14.82;;;;;;;;;;4931860;29;20069;-71
2022/11/21 08:08:04;;;;;;;31.60;16.10;;;;;;;;;;4944850;29;20077;-72
2022/11/21 08:10:30;;;;;;;34.97;17.40;;;;;;;;;;4949251;29;20510;-71
2022/11/21 08:12:56;;;;;;;40.45;21.75;;;;;;;;;;4949347;29;20142;-71
2022/11/21 08:15:21;;;;;;;37.40;19.63;;;;;;;;;;4948278;29;20038;-71
2022/11/21 08:17:48;;;;;;;40.15;20.25;;;;;;;;;;4948945;29;20045;-70
2022/11/21 08:20:14;;;;;;;41.28;23.48;;;;;;;;;;4931589;29;20028;-71
2022/11/21 08:22:40;;;;;;;33.63;15.70;;;;;;;;;;4946746;28;20133;-70
2022/11/21 08:25:06;;;;;;;35.20;17.23;;;;;;;;;;4946360;29;20171;-70
2022/11/21 08:27:32;;;;;;;34.97;19.77;;;;;;;;;;4948838;29;20431;-70
2022/11/21 08:29:58;;;;;;;26.98;13.90;;;;;;;;;;4931857;29;20039;-70
2022/11/21 08:32:24;;;;;;;34.03;14.85;;;;;;;;;;4948817;29;20050;-70
2022/11/21 08:34:50;;;;;;;23.92;12.05;;;;;;;;;;4947599;29;20468;-70
2022/11/21 08:37:16;;;;;;;24.83;12.80;;;;;;;;;;4944003;29;20054;-71
2022/11/21 08:39:42;;;;;;;14.05;11.30;;;;;;;;;;4938517;28;20044;-71
2022/11/21 08:42:09;;;;;;;30.48;16.08;;;;;;;;;;4944378;29;20042;-71
2022/11/21 08:44:35;;;;;;;40.38;19.33;;;;;;;;;;4949349;29;20042;-71
2022/11/21 08:56:48;;;;;;;24.17;13.15;;;;;;;;;;4950831;23;20698;-74
2022/11/21 08:59:14;;;;;;;23.50;14.63;;;;;;;;;;4943327;23;20574;-79
2022/11/21 09:01:43;;;;;;;24.90;15.35;;;;;;;;;;4917280;29;20039;-81
2022/11/21 09:04:09;;;;;;;30.60;16.15;;;;;;;;;;4925946;29;20164;-79
2022/11/21 09:06:35;;;;;;;40.08;16.73;;;;;;;;;;4910930;29;20036;-77
2022/11/21 09:09:01;;;;;;;26.98;14.38;;;;;;;;;;4932752;29;20121;-78
2022/11/21 09:11:27;;;;;;;30.83;17.55;;;;;;;;;;4923371;29;20031;-79
2022/11/21 09:19:44;;;;;;;15.55;9.35;;;;;;;;;;4937604;29;20031;-81
2022/11/21 09:22:11;;;;;;;21.92;11.50;;;;;;;;;;4931347;29;20035;-79
2022/11/21 09:24:40;;;;;;;13.90;9.30;;;;;;;;;;4939072;29;20110;-80
2022/11/21 09:27:06;;;;;;;12.85;7.78;;;;;;;;;;5020022;23;20039;-86
2022/11/21 09:29:35;;;;;;;17.85;11.75;;;;;;;;;;5602035;23;20270;31
2022/11/21 09:32:01;;;;;;;17.02;12.55;;;;;;;;;;4963038;23;20060;-85
2022/11/21 09:34:27;;;;;;;23.15;14.52;;;;;;;;;;4936580;23;20067;-81
2022/11/21 09:36:58;;;;;;;25.50;15.77;;;;;;;;;;4938749;29;20033;-84
2022/11/21 09:39:25;;;;;;;19.80;13.07;;;;;;;;;;4955363;29;20044;-87
2022/11/21 09:41:54;;;;;;;14.30;11.68;;;;;;;;;;5393711;23;20052;-83
2022/11/21 09:44:20;;;;;;;17.00;12.27;;;;;;;;;;5289943;23;20051;-86
2022/11/21 09:46:52;;;;;;;17.40;10.63;;;;;;;;;;5096921;23;20021;-84
2022/11/21 09:49:21;;;;;;;;;;;;;;;;;;4888145;29;20134;-81
2022/11/21 09:51:48;;;;;;;20.55;13.73;;;;;;;;;;4920675;29;20457;-79
2022/11/21 09:54:18;;;;;;;22.73;13.45;;;;;;;;;;4911123;29;20063;-79
2022/11/21 09:56:46;;;;;;;13.30;10.55;;;;;;;;;;4903541;29;20043;-79
2022/11/21 09:59:31;;;;;;;20.10;13.48;;;;;;;;;;4930950;29;20689;-78
2022/11/21 10:02:00;;;;;;;22.67;12.93;;;;;;;;;;4928030;29;20032;-79
2022/11/21 10:04:26;;;;;;;17.48;11.85;;;;;;;;;;4925375;29;20067;-79
2022/11/21 10:07:12;;;;;;;19.08;10.48;;;;;;;;;;4937729;29;20455;-81
2022/11/21 10:09:38;;;;;;;15.18;11.35;;;;;;;;;;4923952;29;20076;-80
2022/11/21 10:15:04;;;;;;;19.75;13.90;;;;;;;;;;4889915;29;20032;-79
2022/11/21 10:17:32;;;;;;;12.48;9.60;;;;;;;;;;4925940;29;20111;-80
2022/11/21 10:19:59;;;;;;;21.15;10.73;;;;;;;;;;4936968;29;20464;-79
2022/11/21 10:22:35;;;;;;;16.50;10.25;;;;;;;;;;4925352;29;20036;-81
2022/11/21 10:25:02;;;;;;;14.50;9.05;;;;;;;;;;4932992;29;20036;-83
2022/11/21 10:27:32;;;;;;;18.60;11.18;;;;;;;;;;4945485;29;20035;-83
2022/11/21 10:30:08;;;;;;;12.63;9.27;;;;;;;;;;4945864;29;20040;-83
2022/11/21 10:32:38;;;;;;;20.55;11.63;;;;;;;;;;4942310;29;20035;-82
2022/11/21 10:35:15;;;;;;;17.48;9.48;;;;;;;;;;4945496;29;20408;-82
2022/11/21 10:37:52;;;;;;;14.32;9.85;;;;;;;;;;4929512;29;20051;-83
2022/11/21 10:40:38;;;;;;;24.25;16.08;;;;;;;;;;4926592;29;20040;-82
2022/11/21 10:46:58;;;;;;;19.00;13.35;;;;;;;;;;4945035;23;21200;-72
2022/11/21 10:49:24;;;;;;;15.82;9.82;;;;;;;;;;4905877;23;20040;-81
2022/11/21 10:51:56;;;;;;;23.52;13.85;;;;;;;;;;4901680;29;20060;-79
2022/11/21 10:54:31;;;;;;;21.13;12.70;;;;;;;;;;4883657;29;20067;-79
2022/11/21 10:57:06;;;;;;;22.70;11.93;;;;;;;;;;4923951;29;20044;-78
2022/11/21 10:59:36;;;;;;;18.42;12.68;;;;;;;;;;4911108;29;20050;-80
2022/11/21 11:05:16;;;;;;;21.70;15.45;;;;;;;;;;5484873;23;20055;-80
2022/11/21 11:07:42;;;;;;;20.45;12.70;;;;;;;;;;4973734;28;20028;-82
2022/11/21 11:10:35;;;;;;;20.35;11.45;;;;;;;;;;4960600;28;20051;-82
2022/11/21 11:15:58;;;;;;;17.23;11.48;;;;;;;;;;4959358;28;20051;-81
2022/11/21 11:21:45;;;;;;;26.95;18.65;;;;;;;;;;4961115;29;20035;-80
2022/11/21 11:24:11;;;;;;;18.02;13.30;;;;;;;;;;4969187;29;20031;-80
2022/11/21 11:26:46;;;;;;;21.95;15.60;;;;;;;;;;4961771;28;20031;-83
2022/11/21 11:29:16;;;;;;;15.43;10.18;;;;;;;;;;4972090;28;20062;-81
2022/11/21 11:31:43;;;;;;;21.85;16.20;;;;;;;;;;4914778;29;20039;-81
2022/11/21 11:34:13;;;;;;;17.60;12.82;;;;;;;;;;4968805;29;20054;-79
2022/11/21 11:36:44;;;;;;;20.52;10.45;;;;;;;;;;4968849;28;20039;-80
2022/11/21 11:39:15;;;;;;;11.50;9.70;;;;;;;;;;4957792;28;20035;-80
2022/11/21 11:47:33;;;;;;;14.57;9.77;;;;;;;;;;4967185;29;20050;-84
2022/11/21 11:50:20;;;;;;;18.00;11.50;;;;;;;;;;4967772;29;20043;-82
2022/11/21 11:53:00;;;;;;;14.48;9.35;;;;;;;;;;4916215;29;20130;-82
2022/11/21 11:55:33;;;;;;;14.52;9.68;;;;;;;;;;4942589;29;20035;-83
2022/11/21 11:58:01;;;;;;;12.77;9.77;;;;;;;;;;4948187;29;20051;-83
2022/11/21 12:00:34;;;;;;;17.23;11.23;;;;;;;;;;4955313;29;20035;-79
2022/11/21 12:03:07;;;;;;;16.65;11.32;;;;;;;;;;4934233;29;20070;-80
2022/11/21 12:05:33;;;;;;;15.35;11.80;;;;;;;;;;4931428;29;20112;-81
2022/11/21 12:08:05;;;;;;;18.33;12.07;;;;;;;;;;4930331;29;20067;-81
2022/11/21 12:10:32;;;;;;;19.83;13.65;;;;;;;;;;4930507;29;20122;-80
2022/11/21 12:13:02;;;;;;;21.33;15.80;;;;;;;;;;4929133;29;20068;-80
2022/11/21 12:15:47;;;;;;;22.40;16.88;;;;;;;;;;4931199;29;20574;-80
2022/11/21 12:18:19;;;;;;;17.02;12.65;;;;;;;;;;4931949;29;20452;-81
2022/11/21 12:20:51;;;;;;;15.13;11.88;;;;;;;;;;4931843;29;20044;-81
2022/11/21 12:23:17;;;;;;;16.98;12.48;;;;;;;;;;4931088;29;20056;-80
2022/11/21 12:26:04;;;;;;;19.42;11.05;;;;;;;;;;4930609;29;20128;-79
2022/11/21 12:28:42;;;;;;;23.00;16.83;;;;;;;;;;4897499;29;20062;-79
2022/11/21 12:31:13;;;;;;;11.75;9.57;;;;;;;;;;4930702;29;20718;-79
2022/11/21 12:33:42;;;;;;;16.50;12.35;;;;;;;;;;4913508;29;20568;-80
2022/11/21 12:36:11;;;;;;;17.10;12.10;;;;;;;;;;4915789;29;20447;-80
2022/11/21 12:38:40;;;;;;;21.15;12.60;;;;;;;;;;4933644;29;20062;-82
2022/11/21 12:44:13;;;;;;;13.77;10.27;;;;;;;;;;4921607;29;20047;-79
2022/11/21 12:46:42;;;;;;;24.02;15.73;;;;;;;;;;4915364;29;20036;-79
2022/11/21 12:55:00;;;;;;;15.73;12.10;;;;;;;;;;4912729;29;20646;-77
2022/11/21 12:57:28;;;;;;;23.08;17.27;;;;;;;;;;4914094;29;20047;-77
2022/11/21 13:00:12;;;;;;;15.27;11.43;;;;;;;;;;4898533;29;20047;-77
2022/11/21 13:02:46;;;;;;;22.70;14.90;;;;;;;;;;4920530;29;20110;-77
2022/11/21 13:05:13;;;;;;;13.20;9.50;;;;;;;;;;4929780;29;20601;-81
2022/11/21 13:07:40;;;;;;;15.68;9.80;;;;;;;;;;4917369;29;20046;-82
2022/11/21 13:10:11;;;;;;;16.27;10.90;;;;;;;;;;4919806;29;20039;-81
2022/11/21 13:12:37;;;;;;;15.15;10.30;;;;;;;;;;4916704;29;20190;-80
2022/11/21 13:15:23;;;;;;;15.25;11.68;;;;;;;;;;4932990;29;20036;-77
2022/11/21 13:17:53;;;;;;;18.13;13.95;;;;;;;;;;4931971;29;20046;-78
2022/11/21 13:20:26;;;;;;;17.25;11.68;;;;;;;;;;4915590;29;20039;-79
2022/11/21 13:22:55;;;;;;;14.77;10.48;;;;;;;;;;4916386;29;20130;-78
2022/11/21 13:25:31;;;;;;;16.52;11.52;;;;;;;;;;4916484;29;20034;-82
2022/11/21 13:28:09;;;;;;;17.98;13.07;;;;;;;;;;4939645;29;20059;-82
2022/11/21 13:30:35;;;;;;;15.63;10.80;;;;;;;;;;4909827;29;20876;-81
2022/11/21 13:33:02;;;;;;;15.98;12.02;;;;;;;;;;4926777;29;20043;-82
2022/11/21 13:35:39;;;;;;;21.52;13.77;;;;;;;;;;4928409;29;20040;-82
2022/11/21 13:38:11;;;;;;;13.45;10.40;;;;;;;;;;4938422;29;20036;-81
2022/11/21 13:42:55;;;;;;;15.25;10.82;;;;;;;;;;4935720;29;20055;-82
2022/11/21 13:43:25;;;;;;;16.55;13.18;;;;;;;;;;4934687;29;20055;-81
2022/11/21 13:45:52;;;;;;;11.50;10.25;;;;;;;;;;4915785;29;20039;-75
2022/11/21 13:48:39;;;;;;;16.40;12.75;;;;;;;;;;4928494;29;20039;-75
2022/11/21 13:51:22;;;;;;;10.93;9.30;;;;;;;;;;4929426;29;20039;-77
2022/11/21 13:53:55;;;;;;;19.27;13.35;;;;;;;;;;4912834;29;20050;-76
2022/11/21 13:56:30;;;;;;;16.50;10.82;;;;;;;;;;4930830;29;20183;-79
2022/11/21 13:59:11;;;;;;;11.80;9.98;;;;;;;;;;4926852;29;20040;-77
2022/11/21 14:01:38;;;;;;;18.75;12.80;;;;;;;;;;4930512;29;20040;-77
2022/11/21 14:04:16;;;;;;;11.63;8.65;;;;;;;;;;4928855;29;20039;-77
2022/11/21 14:06:43;;;;;;;9.27;8.10;;;;;;;;;;4929785;29;20129;-76
2022/11/21 14:09:11;;;;;;;13.60;11.63;;;;;;;;;;4912753;29;20093;-76
2022/11/21 14:11:49;;;;;;;13.60;8.07;;;;;;;;;;4930037;29;20043;-76
2022/11/21 14:14:23;;;;;;;7.95;7.10;;;;;;;;;;4930159;29;20071;-75
2022/11/21 14:16:58;;;;;;;7.65;5.88;;;;;;;;;;4930323;29;20043;-77
2022/11/21 14:19:25;;;;;;;13.00;10.50;;;;;;;;;;4929343;29;20155;-77
2022/11/21 14:21:54;;;;;;;11.23;7.47;;;;;;;;;;4928809;29;20059;-76
2022/11/21 14:24:20;;;;;;;16.52;12.48;;;;;;;;;;4912881;29;20031;-77
2022/11/21 14:26:48;;;;;;;14.85;11.60;;;;;;;;;;4930249;29;20102;-76
2022/11/21 14:29:17;;;;;;;10.02;8.85;;;;;;;;;;4930010;29;20028;-76
2022/11/21 14:31:45;;;;;;;7.90;7.10;;;;;;;;;;4930315;29;20043;-77
2022/11/21 14:34:22;;;;;;;11.25;7.32;;;;;;;;;;4928738;29;20039;-76
2022/11/21 14:36:52;;;;;;;15.98;10.38;;;;;;;;;;4930039;29;20455;-77
2022/11/21 14:39:18;;;;;;;9.18;8.00;;;;;;;;;;4933916;29;20055;-77
2022/11/21 14:41:47;;;;;;;13.13;11.38;;;;;;;;;;4932521;29;20504;-77
2022/11/21 14:44:15;;;;;;;16.05;8.63;;;;;;;;;;4916932;29;20575;-78
2022/11/21 14:46:43;;;;;;;16.33;7.63;;;;;;;;;;4932793;29;20043;-78
2022/11/21 14:49:15;;;;;;;10.50;8.25;;;;;;;;;;4940989;29;20032;-82
2022/11/21 14:51:54;;;;;;;14.80;11.10;;;;;;;;;;4946619;29;20032;-83
2022/11/21 14:54:46;;;;;;;14.93;10.60;;;;;;;;;;4919909;29;20515;-79
2022/11/21 14:57:18;;;;;;;17.77;13.77;;;;;;;;;;4933452;29;20067;-82
2022/11/21 14:59:44;;;;;;;10.15;8.43;;;;;;;;;;4915922;29;20042;-82
2022/11/21 15:02:14;;;;;;;17.90;14.43;;;;;;;;;;4945508;29;20040;-81
2022/11/21 15:04:41;;;;;;;13.50;9.60;;;;;;;;;;4921217;29;20063;-82
2022/11/21 15:07:19;;;;;;;14.18;10.27;;;;;;;;;;4917745;29;20420;-81
2022/11/21 15:09:45;;;;;;;11.68;6.15;;;;;;;;;;4920945;29;20062;-82
2022/11/21 15:12:13;;;;;;;22.73;15.77;;;;;;;;;;4925233;29;20040;-82
2022/11/21 15:14:43;;;;;;;17.52;13.88;;;;;;;;;;4924010;29;20029;-83
2022/11/21 15:17:15;;;;;;;18.40;14.05;;;;;;;;;;4923073;29;20107;-82
2022/11/21 15:19:41;;;;;;;16.27;6.97;;;;;;;;;;4921783;29;20071;-82
2022/11/21 15:22:14;;;;;;;11.57;9.38;;;;;;;;;;4923219;29;20040;-83